createdAt,value
2018-04-23T00:02:07.950Z,12.90
2018-04-23T00:04:36.164Z,12.90
2018-04-23T00:07:04.550Z,12.80
2018-04-23T00:09:32.865Z,12.80
2018-04-23T00:12:00.426Z,12.80
2018-04-23T00:14:27.870Z,12.70
2018-04-23T00:16:55.706Z,12.70
2018-04-23T00:19:23.639Z,12.60
2018-04-23T00:21:51.230Z,12.50
2018-04-23T00:24:18.729Z,12.50
2018-04-23T00:26:46.382Z,12.50
2018-04-23T00:29:14.578Z,12.50
2018-04-23T00:31:42.779Z,12.40
2018-04-23T00:34:10.279Z,12.40
2018-04-23T00:36:37.723Z,12.40
2018-04-23T00:39:06.154Z,12.50
2018-04-23T00:41:34.369Z,12.50
2018-04-23T00:44:03.290Z,12.50
2018-04-23T00:46:30.823Z,12.50
2018-04-23T00:48:58.290Z,12.50
2018-04-23T00:51:25.735Z,12.50
2018-04-23T00:53:54.301Z,12.50
2018-04-23T00:56:21.734Z,12.40
2018-04-23T00:58:49.954Z,12.40
2018-04-23T01:01:17.411Z,12.30
2018-04-23T01:03:45.201Z,12.30
2018-04-23T01:06:12.734Z,12.20
2018-04-23T01:08:40.267Z,12.20
2018-04-23T01:11:07.775Z,12.20
2018-04-23T01:13:35.249Z,12.20
2018-04-23T01:16:03.020Z,12.20
2018-04-23T01:18:30.601Z,12.20
2018-04-23T01:20:58.190Z,12.20
2018-04-23T01:23:25.639Z,12.20
2018-04-23T01:25:53.117Z,12.20
2018-04-23T01:28:20.554Z,12.10
2018-04-23T01:30:48.011Z,12.10
2018-04-23T01:33:15.450Z,12.00
2018-04-23T01:35:44.273Z,12.00
2018-04-23T01:38:13.186Z,12.00
2018-04-23T01:40:40.987Z,12.00
2018-04-23T01:43:09.183Z,11.90
2018-04-23T01:45:36.642Z,11.90
2018-04-23T01:48:04.074Z,11.90
2018-04-23T01:50:32.379Z,12.00
2018-04-23T01:52:59.813Z,12.00
2018-04-23T01:55:28.153Z,12.00
2018-04-23T01:57:55.617Z,12.00
2018-04-23T02:00:23.048Z,12.00
2018-04-23T02:02:50.481Z,12.10
2018-04-23T02:05:17.933Z,12.10
2018-04-23T02:07:45.392Z,12.10
2018-04-23T02:10:12.950Z,12.20
2018-04-23T02:12:40.410Z,12.30
2018-04-23T02:15:07.959Z,12.50
2018-04-23T02:17:35.447Z,12.60
2018-04-23T02:20:03.726Z,12.70
2018-04-23T02:22:31.835Z,12.70
2018-04-23T02:24:59.278Z,12.80
2018-04-23T02:27:27.086Z,12.90
2018-04-23T02:29:55.311Z,13.10
2018-04-23T02:32:22.741Z,13.10
2018-04-23T02:34:50.209Z,13.20
2018-04-23T02:37:17.646Z,13.30
2018-04-23T02:39:45.125Z,13.30
2018-04-23T02:42:12.654Z,13.30
2018-04-23T02:44:41.481Z,13.40
2018-04-23T02:47:08.946Z,13.40
2018-04-23T02:49:36.415Z,13.40
2018-04-23T02:52:03.859Z,13.40
2018-04-23T02:54:31.955Z,13.40
2018-04-23T02:56:59.391Z,13.50
2018-04-23T02:59:26.867Z,13.60
2018-04-23T03:01:55.826Z,13.70
2018-04-23T03:04:23.305Z,13.70
2018-04-23T03:06:51.110Z,13.70
2018-04-23T03:09:19.768Z,13.80
2018-04-23T03:11:47.204Z,13.80
2018-04-23T03:14:14.635Z,13.70
2018-04-23T03:16:42.161Z,13.70
2018-04-23T03:19:10.367Z,13.70
2018-04-23T03:21:38.177Z,13.70
2018-04-23T03:24:05.623Z,13.80
2018-04-23T03:26:33.063Z,13.80
2018-04-23T03:29:00.550Z,13.80
2018-04-23T03:31:28.167Z,13.80
2018-04-23T03:33:55.598Z,13.70
2018-04-23T03:36:23.998Z,13.70
2018-04-23T03:38:51.497Z,13.70
2018-04-23T03:41:19.459Z,13.70
2018-04-23T03:43:47.674Z,13.70
2018-04-23T03:46:15.146Z,13.70
2018-04-23T03:48:43.590Z,13.80
2018-04-23T03:51:11.020Z,13.70
2018-04-23T03:53:38.980Z,13.70
2018-04-23T03:56:06.406Z,13.70
2018-04-23T03:58:34.633Z,13.70
2018-04-23T04:01:02.151Z,13.70
2018-04-23T04:03:30.444Z,13.70
2018-04-23T04:05:57.993Z,13.70
2018-04-23T04:08:26.206Z,13.70
2018-04-23T04:10:54.829Z,13.70
2018-04-23T04:13:34.195Z,13.70
2018-04-23T04:16:13.567Z,13.70
2018-04-23T04:18:46.268Z,13.60
2018-04-23T04:21:13.711Z,13.60
2018-04-23T04:23:41.669Z,13.60
2018-04-23T04:26:09.150Z,13.60
2018-04-23T04:28:38.136Z,13.60
2018-04-23T04:31:05.955Z,13.70
2018-04-23T04:33:34.216Z,13.80
2018-04-23T04:36:02.425Z,13.80
2018-04-23T04:38:29.950Z,13.70
2018-04-23T04:40:58.164Z,13.70
2018-04-23T04:43:25.602Z,13.80
2018-04-23T04:45:53.172Z,13.80
2018-04-23T04:48:21.125Z,13.70
2018-04-23T04:50:48.555Z,13.80
2018-04-23T04:53:17.109Z,13.80
2018-04-23T04:55:44.539Z,13.70
2018-04-23T04:58:12.907Z,13.80
2018-04-23T05:00:40.421Z,13.80
2018-04-23T05:03:07.865Z,13.80
2018-04-23T05:05:35.412Z,13.70
2018-04-23T05:08:02.853Z,13.80
2018-04-23T05:10:30.473Z,13.80
2018-04-23T05:12:58.675Z,13.90
2018-04-23T05:15:26.187Z,13.90
2018-04-23T05:17:53.869Z,14.00
2018-04-23T05:20:22.092Z,14.10
2018-04-23T05:22:49.523Z,14.00
2018-04-23T05:25:16.970Z,14.30
2018-04-23T05:27:45.186Z,14.50
2018-04-23T05:30:12.743Z,14.50
2018-04-23T05:32:40.315Z,14.60
2018-04-23T05:35:07.966Z,14.90
2018-04-23T05:37:35.552Z,15.10
2018-04-23T05:40:02.969Z,15.10
2018-04-23T05:42:30.490Z,15.30
2018-04-23T05:44:58.706Z,15.50
2018-04-23T05:49:59.192Z,15.40
2018-04-23T05:52:26.726Z,15.30
2018-04-23T05:54:54.252Z,15.20
2018-04-23T05:57:22.292Z,14.90
2018-04-23T05:59:49.718Z,15.00
2018-04-23T06:02:17.177Z,15.10
2018-04-23T06:04:44.760Z,15.20
2018-04-23T06:07:12.357Z,15.30
2018-04-23T06:09:41.203Z,15.00
2018-04-23T06:12:08.727Z,14.90
2018-04-23T06:14:36.621Z,14.90
2018-04-23T06:17:04.106Z,14.80
2018-04-23T06:19:32.668Z,14.90
2018-04-23T06:22:00.102Z,14.90
2018-04-23T06:24:28.034Z,14.90
2018-04-23T06:26:55.530Z,14.90
2018-04-23T06:29:22.996Z,14.80
2018-04-23T06:31:50.670Z,14.60
2018-04-23T06:34:18.132Z,14.60
2018-04-23T06:36:45.542Z,14.60
2018-04-23T06:39:13.004Z,14.60
2018-04-23T06:41:40.448Z,14.60
2018-04-23T06:44:07.988Z,14.50
2018-04-23T06:46:36.437Z,14.30
2018-04-23T06:49:03.888Z,14.30
2018-04-23T06:51:31.641Z,14.20
2018-04-23T06:53:59.085Z,14.10
2018-04-23T06:56:26.554Z,14.10
2018-04-23T06:58:53.993Z,14.20
2018-04-23T07:01:21.610Z,14.30
2018-04-23T07:03:49.592Z,14.20
2018-04-23T07:06:17.842Z,14.30
2018-04-23T07:08:45.277Z,14.30
2018-04-23T07:11:12.916Z,14.30
2018-04-23T07:13:40.450Z,14.20
2018-04-23T07:16:08.774Z,14.10
2018-04-23T07:18:36.569Z,14.10
2018-04-23T07:21:04.006Z,14.20
2018-04-23T07:23:31.698Z,14.30
2018-04-23T07:25:59.212Z,14.30
2018-04-23T07:28:26.637Z,14.30
2018-04-23T07:30:54.850Z,14.30
2018-04-23T07:33:22.351Z,14.20
2018-04-23T07:35:49.778Z,14.10
2018-04-23T07:38:17.316Z,14.00
2018-04-23T07:40:44.753Z,13.90
2018-04-23T07:43:13.195Z,14.10
2018-04-23T07:45:40.634Z,14.10
2018-04-23T07:48:08.098Z,14.10
2018-04-23T07:50:35.543Z,14.00
2018-04-23T07:53:03.202Z,14.10
2018-04-23T07:55:30.634Z,14.00
2018-04-23T07:57:58.073Z,14.00
2018-04-23T08:00:26.290Z,13.90
2018-04-23T08:02:53.758Z,13.90
2018-04-23T08:05:21.199Z,13.90
2018-04-23T08:07:48.690Z,13.90
2018-04-23T08:10:16.302Z,14.00
2018-04-23T08:12:44.221Z,14.10
2018-04-23T08:15:11.846Z,14.10
2018-04-23T08:17:40.806Z,14.20
2018-04-23T08:20:09.028Z,14.20
2018-04-23T08:22:36.470Z,14.10
2018-04-23T08:25:04.722Z,14.10
2018-04-23T08:27:33.133Z,14.10
2018-04-23T08:30:00.936Z,14.00
2018-04-23T08:32:28.482Z,13.90
2018-04-23T08:34:55.958Z,13.90
2018-04-23T08:37:23.806Z,13.90
2018-04-23T08:39:52.154Z,13.90
2018-04-23T08:42:19.615Z,13.80
2018-04-23T08:44:47.064Z,13.80
2018-04-23T08:47:14.507Z,14.00
2018-04-23T08:49:42.433Z,14.10
2018-04-23T08:52:09.875Z,14.30
2018-04-23T08:54:37.314Z,14.30
2018-04-23T08:57:04.764Z,14.30
2018-04-23T08:59:32.197Z,14.20
2018-04-23T09:02:00.594Z,14.10
2018-04-23T09:04:28.061Z,14.10
2018-04-23T09:06:55.536Z,13.90
2018-04-23T09:09:22.975Z,13.90
2018-04-23T09:11:50.410Z,13.90
2018-04-23T09:14:18.822Z,13.80
2018-04-23T09:16:46.287Z,13.80
2018-04-23T09:19:13.685Z,13.80
2018-04-23T09:21:44.393Z,13.60
2018-04-23T09:24:12.493Z,13.60
2018-04-23T09:26:40.431Z,13.40
2018-04-23T09:29:07.891Z,13.30
2018-04-23T09:31:35.386Z,13.30
2018-04-23T09:34:02.775Z,13.50
2018-04-23T09:36:30.268Z,13.60
2018-04-23T09:38:58.653Z,13.70
2018-04-23T09:41:26.207Z,13.70
2018-04-23T09:43:53.641Z,13.80
2018-04-23T09:46:21.171Z,14.10
2018-04-23T09:48:48.768Z,14.30
2018-04-23T09:51:16.247Z,15.00
2018-04-23T09:53:43.809Z,15.50
2018-04-23T09:56:11.590Z,15.70
2018-04-23T09:58:39.168Z,15.40
2018-04-23T10:01:12.739Z,15.30
2018-04-23T10:03:42.088Z,15.00
2018-04-23T10:06:09.667Z,15.30
2018-04-23T10:08:38.206Z,15.70
2018-04-23T10:11:06.646Z,16.90
2018-04-23T10:13:34.265Z,16.90
2018-04-23T10:16:02.480Z,17.40
2018-04-23T10:18:29.961Z,17.30
2018-04-23T10:20:57.405Z,17.60
2018-04-23T10:23:24.961Z,18.10
2018-04-23T10:25:52.407Z,18.20
2018-04-23T10:28:19.921Z,18.70
2018-04-23T10:30:49.161Z,20.30
2018-04-23T10:33:16.616Z,20.20
2018-04-23T10:35:44.070Z,20.00
2018-04-23T10:38:11.521Z,20.50
2018-04-23T10:43:24.596Z,21.60
2018-04-23T10:45:52.915Z,21.10
2018-04-23T10:48:25.944Z,20.40
2018-04-23T10:50:53.411Z,20.40
2018-04-23T10:53:21.166Z,20.60
2018-04-23T10:55:48.624Z,20.70
2018-04-23T10:58:16.183Z,21.10
2018-04-23T11:00:43.976Z,21.90
2018-04-23T11:03:12.446Z,22.00
2018-04-23T11:05:39.919Z,21.10
2018-04-23T11:08:12.196Z,21.00
2018-04-23T11:10:40.424Z,19.30
2018-04-23T11:13:07.893Z,19.20
2018-04-23T11:15:37.302Z,19.00
2018-04-23T11:18:05.270Z,19.20
2018-04-23T11:20:32.700Z,19.60
2018-04-23T11:23:00.585Z,20.50
2018-04-23T11:25:28.401Z,21.10
2018-04-23T11:27:55.846Z,21.40
2018-04-23T11:30:24.965Z,20.80
2018-04-23T11:32:53.318Z,19.90
2018-04-23T11:35:22.292Z,19.20
2018-04-23T11:37:50.402Z,19.20
2018-04-23T11:40:18.883Z,20.20
2018-04-23T11:42:47.131Z,20.60
2018-04-23T11:45:14.593Z,20.60
2018-04-23T11:47:42.566Z,20.10
2018-04-23T11:50:09.999Z,20.10
2018-04-23T11:52:37.453Z,20.70
2018-04-23T11:55:04.871Z,20.70
2018-04-23T11:57:33.085Z,21.10
2018-04-23T12:00:01.540Z,21.00
2018-04-23T12:02:29.049Z,20.50
2018-04-23T12:04:56.517Z,20.50
2018-04-23T12:07:24.188Z,19.90
2018-04-23T12:09:51.703Z,18.70
2018-04-23T12:12:19.162Z,18.10
2018-04-23T12:14:47.692Z,18.80
2018-04-23T12:17:16.906Z,19.00
2018-04-23T12:19:45.105Z,18.40
2018-04-23T12:22:12.577Z,18.30
2018-04-23T12:24:40.030Z,18.30
2018-04-23T12:27:07.492Z,18.50
2018-04-23T12:29:35.349Z,18.90
2018-04-23T12:32:02.924Z,19.10
2018-04-23T12:34:30.360Z,19.60
2018-04-23T12:36:58.141Z,20.40
2018-04-23T12:39:25.593Z,20.40
2018-04-23T12:41:53.269Z,19.60
2018-04-23T12:44:21.220Z,19.90
2018-04-23T12:49:21.709Z,20.50
2018-04-23T12:51:49.734Z,20.80
2018-04-23T12:54:17.191Z,20.60
2018-04-23T12:56:44.678Z,21.00
2018-04-23T12:59:12.358Z,21.00
2018-04-23T13:01:39.834Z,20.20
2018-04-23T13:04:07.265Z,19.60
2018-04-23T13:06:34.775Z,19.20
2018-04-23T13:09:02.983Z,18.40
2018-04-23T13:11:30.507Z,18.40
2018-04-23T13:13:58.725Z,17.70
2018-04-23T13:16:26.440Z,17.70
2018-04-23T13:18:54.655Z,17.50
2018-04-23T13:21:22.084Z,17.50
2018-04-23T13:23:49.524Z,17.50
2018-04-23T13:26:17.744Z,18.40
2018-04-23T13:28:46.052Z,18.40
2018-04-23T13:31:13.494Z,18.70
2018-04-23T13:33:41.190Z,18.60
2018-04-23T13:36:08.652Z,18.40
2018-04-23T13:38:36.862Z,18.60
2018-04-23T13:41:04.434Z,18.50
2018-04-23T13:43:32.453Z,18.70
2018-04-23T13:45:59.993Z,18.50
2018-04-23T13:48:27.412Z,18.10
2018-04-23T13:50:54.853Z,17.80
2018-04-23T13:53:23.055Z,17.40
2018-04-23T13:55:50.542Z,17.30
2018-04-23T13:58:18.021Z,17.10
2018-04-23T14:00:46.231Z,17.50
2018-04-23T14:03:14.088Z,17.50
2018-04-23T14:05:42.299Z,17.60
2018-04-23T14:08:09.805Z,17.70
2018-04-23T14:10:37.394Z,17.60
2018-04-23T14:13:06.187Z,17.40
2018-04-23T14:15:33.807Z,17.40
2018-04-23T14:18:01.234Z,17.30
2018-04-23T14:20:28.840Z,17.30
2018-04-23T14:22:57.046Z,17.00
2018-04-23T14:25:24.553Z,17.00
2018-04-23T14:27:52.014Z,17.10
2018-04-23T14:30:19.452Z,17.50
2018-04-23T14:32:46.952Z,17.40
2018-04-23T14:35:14.368Z,17.40
2018-04-23T14:37:41.963Z,17.40
2018-04-23T14:40:10.214Z,17.10
2018-04-23T14:42:37.655Z,16.90
2018-04-23T14:45:05.758Z,17.10
2018-04-23T14:47:34.751Z,17.10
2018-04-23T14:50:03.839Z,17.20
2018-04-23T14:52:32.022Z,17.20
2018-04-23T14:55:00.987Z,17.10
2018-04-23T14:57:28.742Z,17.10
2018-04-23T14:59:56.228Z,16.60
2018-04-23T15:02:23.846Z,16.70
2018-04-23T15:04:53.203Z,16.80
2018-04-23T15:07:25.194Z,16.70
2018-04-23T15:09:53.387Z,16.40
2018-04-23T15:12:21.063Z,16.40
2018-04-23T15:14:48.512Z,16.50
2018-04-23T15:17:16.710Z,16.30
2018-04-23T15:19:44.223Z,16.30
2018-04-23T15:22:11.638Z,16.30
2018-04-23T15:24:39.063Z,16.20
2018-04-23T15:27:06.483Z,16.00
2018-04-23T15:29:34.718Z,15.90
2018-04-23T15:32:02.181Z,15.90
2018-04-23T15:34:29.623Z,16.20
2018-04-23T15:36:57.053Z,16.50
2018-04-23T15:39:25.622Z,16.00
2018-04-23T15:41:53.138Z,16.00
2018-04-23T15:44:20.594Z,15.90
2018-04-23T15:46:48.061Z,15.90
2018-04-23T15:49:15.497Z,15.80
2018-04-23T15:51:43.064Z,15.70
2018-04-23T15:54:10.648Z,15.50
2018-04-23T15:56:38.142Z,15.20
2018-04-23T15:59:07.332Z,15.00
2018-04-23T16:01:36.412Z,15.20
2018-04-23T16:04:03.907Z,15.20
2018-04-23T16:06:32.107Z,15.10
2018-04-23T16:08:59.554Z,15.00
2018-04-23T16:11:27.003Z,15.20
2018-04-23T16:13:54.814Z,15.20
2018-04-23T16:16:22.271Z,15.10
2018-04-23T16:18:49.763Z,15.20
2018-04-23T16:21:17.991Z,15.20
2018-04-23T16:23:46.086Z,15.20
2018-04-23T16:26:13.524Z,15.30
2018-04-23T16:28:40.955Z,15.20
2018-04-23T16:31:08.433Z,14.80
2018-04-23T16:33:37.006Z,14.70
2018-04-23T16:36:04.468Z,14.50
2018-04-23T16:38:31.894Z,14.40
2018-04-23T16:40:59.613Z,14.30
2018-04-23T16:43:27.302Z,14.20
2018-04-23T16:45:55.551Z,13.80
2018-04-23T16:48:24.467Z,13.80
2018-04-23T16:50:52.375Z,13.80
2018-04-23T16:53:20.915Z,13.90
2018-04-23T16:55:48.746Z,13.90
2018-04-23T16:58:16.429Z,13.80
2018-04-23T17:00:43.854Z,13.80
2018-04-23T17:03:11.351Z,13.80
2018-04-23T17:05:39.755Z,13.50
2018-04-23T17:08:07.973Z,13.20
2018-04-23T17:10:36.041Z,13.20
2018-04-23T17:13:03.654Z,13.10
2018-04-23T17:15:31.096Z,13.00
2018-04-23T17:17:58.966Z,13.00
2018-04-23T17:20:27.199Z,13.10
2018-04-23T17:22:56.573Z,13.10
2018-04-23T17:25:24.133Z,13.00
2018-04-23T17:27:52.382Z,12.70
2018-04-23T17:30:19.935Z,12.70
2018-04-23T17:32:49.753Z,12.70
2018-04-23T17:35:17.281Z,12.60
2018-04-23T17:37:44.721Z,12.50
2018-04-23T17:40:12.235Z,12.40
2018-04-23T17:42:40.253Z,12.20
2018-04-23T17:45:07.714Z,12.20
2018-04-23T17:47:35.188Z,12.10
2018-04-23T17:50:03.409Z,12.00
2018-04-23T17:52:31.634Z,11.90
2018-04-23T17:54:59.497Z,11.90
2018-04-23T17:57:26.969Z,11.80
2018-04-23T17:59:54.438Z,11.80
2018-04-23T18:02:21.887Z,11.80
2018-04-23T18:04:49.318Z,11.70
2018-04-23T18:07:16.806Z,11.60
2018-04-23T18:09:44.374Z,11.50
2018-04-23T18:12:11.816Z,11.40
2018-04-23T18:14:39.407Z,11.30
2018-04-23T18:17:06.886Z,11.30
2018-04-23T18:19:35.231Z,11.10
2018-04-23T18:22:02.980Z,11.10
2018-04-23T18:24:30.477Z,11.00
2018-04-23T18:26:58.693Z,10.90
2018-04-23T18:29:26.152Z,10.80
2018-04-23T18:31:53.681Z,10.80
2018-04-23T18:34:21.886Z,10.60
2018-04-23T18:36:50.365Z,10.50
2018-04-23T18:39:17.793Z,10.60
2018-04-23T18:41:46.105Z,10.40
2018-04-23T18:44:13.693Z,10.40
2018-04-23T18:46:41.494Z,10.30
2018-04-23T18:49:09.753Z,10.20
2018-04-23T18:51:38.198Z,10.20
2018-04-23T18:54:06.199Z,10.20
2018-04-23T18:56:33.904Z,10.10
2018-04-23T19:01:38.847Z,9.90
2018-04-23T19:04:06.573Z,9.90
2018-04-23T19:06:34.160Z,9.90
2018-04-23T19:09:01.719Z,9.90
2018-04-23T19:11:29.991Z,9.70
2018-04-23T19:13:58.288Z,9.70
2018-04-23T19:16:25.823Z,9.70
2018-04-23T19:18:54.042Z,9.60
2018-04-23T19:21:21.495Z,9.60
2018-04-23T19:23:52.925Z,9.50
2018-04-23T19:26:22.684Z,9.50
2018-04-23T19:28:50.165Z,9.40
2018-04-23T19:31:17.714Z,9.40
2018-04-23T19:33:45.170Z,9.30
2018-04-23T19:36:13.880Z,9.20
2018-04-23T19:38:42.068Z,9.20
2018-04-23T19:41:09.442Z,9.20
2018-04-23T19:43:36.968Z,9.10
2018-04-23T19:46:05.211Z,9.10
2018-04-23T19:48:32.653Z,9.10
2018-04-23T19:51:00.092Z,9.10
2018-04-23T19:53:27.748Z,9.00
2018-04-23T19:56:00.546Z,9.00
2018-04-23T19:58:27.987Z,9.00
2018-04-23T20:00:55.694Z,9.00
2018-04-23T20:03:23.186Z,9.00
2018-04-23T20:05:51.403Z,8.90
2018-04-23T20:08:19.186Z,8.90
2018-04-23T20:10:46.639Z,8.90
2018-04-23T20:13:14.078Z,8.90
2018-04-23T20:15:42.748Z,8.90
2018-04-23T20:18:10.198Z,8.80
2018-04-23T20:20:37.619Z,8.80
2018-04-23T20:23:06.765Z,8.70
2018-04-23T20:25:34.184Z,8.70
2018-04-23T20:28:02.457Z,8.60
2018-04-23T20:30:30.007Z,8.60
2018-04-23T20:32:57.759Z,8.60
2018-04-23T20:35:25.187Z,8.60
2018-04-23T20:37:52.831Z,8.60
2018-04-23T20:40:20.246Z,8.50
2018-04-23T20:42:47.699Z,8.40
2018-04-23T20:45:15.813Z,8.30
2018-04-23T20:47:43.248Z,8.30
2018-04-23T20:50:11.953Z,8.20
2018-04-23T20:52:40.128Z,8.20
2018-04-23T20:55:09.596Z,8.20
2018-04-23T20:57:37.028Z,8.20
2018-04-23T21:00:04.514Z,8.10
2018-04-23T21:02:31.943Z,8.00
2018-04-23T21:04:59.386Z,8.00
2018-04-23T21:07:26.897Z,7.90
2018-04-23T21:09:54.465Z,7.90
2018-04-23T21:12:22.979Z,7.80
2018-04-23T21:14:50.414Z,7.80
2018-04-23T21:17:17.873Z,7.80
2018-04-23T21:19:45.458Z,7.80
2018-04-23T21:22:13.426Z,7.80
2018-04-23T21:24:41.043Z,7.70
2018-04-23T21:27:09.269Z,7.80
2018-04-23T21:29:36.700Z,7.80
2018-04-23T21:32:04.348Z,7.80
2018-04-23T21:34:32.036Z,7.80
2018-04-23T21:36:59.522Z,7.70
2018-04-23T21:39:27.146Z,7.70
2018-04-23T21:41:54.733Z,7.70
2018-04-23T21:44:22.416Z,7.70
2018-04-23T21:46:49.850Z,7.60
2018-04-23T21:49:17.280Z,7.50
2018-04-23T21:51:45.620Z,7.50
2018-04-23T21:54:13.243Z,7.50
2018-04-23T21:56:40.684Z,7.50
2018-04-23T21:59:08.115Z,7.50
2018-04-23T22:01:36.572Z,7.50
2018-04-23T22:04:03.998Z,7.50
2018-04-23T22:06:31.466Z,7.50
2018-04-23T22:08:59.015Z,7.50
2018-04-23T22:11:26.702Z,7.40
2018-04-23T22:13:54.128Z,7.30
2018-04-23T22:16:21.694Z,7.30
2018-04-23T22:18:49.798Z,7.30
2018-04-23T22:21:18.027Z,7.30
2018-04-23T22:23:46.011Z,7.30
2018-04-23T22:26:13.498Z,7.20
2018-04-23T22:28:40.949Z,7.30
2018-04-23T22:31:09.154Z,7.20
2018-04-23T22:33:37.346Z,7.00
2018-04-23T22:36:04.782Z,7.00
2018-04-23T22:38:33.000Z,7.10
2018-04-23T22:41:00.442Z,7.10
2018-04-23T22:43:28.252Z,7.30
2018-04-23T22:45:55.704Z,7.30
2018-04-23T22:48:23.162Z,7.50
2018-04-23T22:50:52.410Z,7.70
2018-04-23T22:53:20.598Z,7.80
2018-04-23T22:55:48.395Z,7.80
2018-04-23T22:58:15.957Z,7.90
2018-04-23T23:00:44.354Z,8.00
2018-04-23T23:03:12.279Z,8.10
2018-04-23T23:05:40.518Z,8.10
2018-04-23T23:08:09.498Z,8.20
2018-04-23T23:10:37.355Z,8.20
2018-04-23T23:13:05.826Z,8.30
2018-04-23T23:15:33.371Z,8.30
2018-04-23T23:18:01.680Z,8.30
2018-04-23T23:20:29.103Z,8.40
2018-04-23T23:22:56.531Z,8.30
2018-04-23T23:25:24.174Z,8.40
2018-04-23T23:27:52.542Z,8.50
2018-04-23T23:30:21.040Z,8.70
2018-04-23T23:32:49.230Z,8.60
2018-04-23T23:35:17.146Z,8.60
2018-04-23T23:37:46.333Z,8.60
2018-04-23T23:40:14.036Z,8.60
2018-04-23T23:42:42.468Z,8.70
2018-04-23T23:45:09.890Z,8.70
2018-04-23T23:47:37.813Z,8.70
2018-04-23T23:50:05.298Z,8.70
2018-04-23T23:52:33.490Z,8.70
2018-04-23T23:55:00.953Z,8.70
2018-04-23T23:57:28.458Z,8.70
2018-04-23T23:59:55.921Z,8.70
